Aérodrome :
LOGIN :

S'inscrire | Disclaimer

   EN    FR    IT 

 










Légende :    VFR   VFR Marginal   IFR   IFR Intensif   IFR Très Intensif
Visi : 
Plafond : 
>= 8 km
>= 3000ft
5 à 8 km
1000 à 3000 ft
1500m à 5 km
500 à 1000 ft
800 à 1500m
200 à 500 ft
< 800m
< 200 ft
Symboles :   Orages  Brouillard  Fortes neiges  Fortes précipitations  Vent > 20 kt
SIGMETs :   Divers  Orages  Givrage  Turbulence  Onde Orograph.  Cendres Volcan.







- Altitude de l'aérodrome : 776 ft
- Code IATA : RMS


ETAR - Ramstein Air Base

DERNIER METAR :
  • 211056Z AUTO 26008KT 9999 FEW021 FEW160 SCT190 23/18 A2991 RMK AO2 SLP123 T02280179 $

METARs EXPIRÉS :
  • 210956Z AUTO 27008KT 9999 FEW018 FEW110 SCT160 SCT180 SCT210 22/18 A2990 RMK AO2 SLP119 T02170177 $
  • 210922Z AUTO 22007KT 9999 FEW016 FEW120 SCT190 21/18 A2990 RMK AO2 SLP119 $
  • 210856Z AUTO 24005KT 9999 FEW110 SCT200 21/19 A2989 RMK AO2 SLP118 60000 T02070186 51008 $

TAF TAF ETAR
Valide du 21 à 10h jusqu'au 22 à 16h UTC


211012Z 2110/2216 24009KT 8000 -SHRA BKN030 QNH2988INS
TEMPO 2114/2116 VRB10G20KT 6000 -TSRA BKN030CB
BECMG 2117/2118 16006KT 8000 BR BKN040 QNH2989INS
BECMG 2203/2204 VRB03KT 3200 BR BKN040 QNH2991INS
BECMG 2206/2207 VRB06KT 9999 NSW BKN030 QNH2994INS
BECMG 2209/2210 VRB06KT 8000 -SHRA BKN040 QNH2993INS TX25/2114Z TN16/2204Z
Pas de NOTAMs connus pour ce terrain.



MET'MAP, la Météo Aéronautique d'un coup d'oeil ! - Copyright ORBIFLY Décembre 2007 - Disclaimer

ORBIFLY MET'MAP TEAM :

Programmation & Développement : Alexandra Zaïnal
Conception & Développement : Baudouin d'Aumeries
Co-Programmation & Développement : Marc-Olivier Méhu
Soutien technique & logistique : Manuel Goepfert

Contact : metmap@orbifly.com




SOURCES & CREDITS :

   NOAA